OIFS  Shahrekord  Airport

Shahrekord, Iran

Add Bookmark
ICAO OIFS
IATA CQD
Type Airport
Status Operational
Latitude
32° 17' 49" N
32.297199
Longitude
50° 50' 31" E
50.842201
Local (GMT +4.5 ) UTC
Apr 29, 2016 02:24 pm Apr 29, 2016 09:54
Sunrise-Sunset Local UTC
Begin Civil Twilight 05:54 am 01:24
Sunrise 06:20 am 01:50
Sunset 07:47 pm 15:17
End Civil Twilight 08:13 pm 15:43
VFR
VFR
MVFR
MVFR
IFR
IFR
LIFR
LIFR
Unknown
Unavailable

Current Weather

METAR Observed VFR
OIFS 290900Z 21010KT 9999 SCT040 24/M00 Q1021 Fri, Apr 29, 2016 @ 09:00 UTC
(54 Minutes ago)
Visual Flight Rules
Wind Visibility Clouds Conditions
210° at 10 knots (19 kph) 10 km or more
  • Scattered at 4,000 ft AGL
  • No significant weather
Temperatures Readings Precipitation
Current Temp
24°C
75°F
Dewpoint
0°C
32°F
Humidity 21%
Altimeter 30.15" Hg
Sea Level Pressure 1,021 mb
Field Elevation
2,078 m
6,818 ft
None Recorded
-
-

CheckWX.com is intended as a tool to help pilots better visualize weather data. It is not intended as a substitute for an official weather briefing obtained from a Flight Service Station. CheckWX.com does not meet the FAA requirements for an official pre-flight weather briefing. Therefore, it's important that pilots still call and obtain an official FSS pre-flight weather briefing.

© 2007-2016 CheckWX.com
09:54:37 UTC